TimePDT,TemperatureF,Dew PointF,Humidity,Sea Level PressureIn,VisibilityMPH,Wind Direction,Wind SpeedMPH,Gust SpeedMPH,PrecipitationIn,Events,Conditions,WindDirDegrees,DateUTC
12:52 AM,91.0,39.9,17,29.77,10.0,WSW,9.2,-,N/A,,Clear,250,2012-09-02 07:52:00
1:52 AM,89.1,39.9,18,29.76,10.0,West,8.1,-,N/A,,Clear,260,2012-09-02 08:52:00
2:52 AM,88.0,43.0,21,29.76,10.0,Variable,3.5,-,N/A,,Clear,0,2012-09-02 09:52:00
4:52 AM,82.9,53.1,36,29.76,10.0,North,4.6,-,N/A,,Clear,10,2012-09-02 11:52:00
6:52 AM,86.0,45.0,24,29.81,10.0,NNW,4.6,-,N/A,,Clear,340,2012-09-02 13:52:00
7:52 AM,91.9,33.1,12,29.83,10.0,WNW,4.6,-,N/A,,Clear,300,2012-09-02 14:52:00
8:52 AM,93.9,35.1,13,29.83,10.0,Calm,Calm,-,N/A,,Clear,0,2012-09-02 15:52:00
9:52 AM,97.0,32.0,10,29.83,10.0,NW,3.5,-,N/A,,Clear,320,2012-09-02 16:52:00
10:52 AM,100.0,35.1,10,29.82,10.0,NW,3.5,-,N/A,,Clear,310,2012-09-02 17:52:00
11:52 AM,102.9,42.1,13,29.81,10.0,ESE,6.9,-,N/A,,Clear,120,2012-09-02 18:52:00
12:52 PM,104.0,45.0,14,29.80,10.0,ESE,4.6,-,N/A,,Clear,120,2012-09-02 19:52:00
1:52 PM,105.1,46.0,14,29.77,10.0,Variable,6.9,-,N/A,,Clear,0,2012-09-02 20:52:00
2:52 PM,106.0,46.9,14,29.75,10.0,SE,6.9,-,N/A,,Partly Cloudy,140,2012-09-02 21:52:00
3:52 PM,107.1,50.0,15,29.71,10.0,SE,10.4,-,N/A,,Partly Cloudy,130,2012-09-02 22:52:00
4:52 PM,108.0,51.1,15,29.70,10.0,SSW,10.4,18.4,N/A,,Partly Cloudy,210,2012-09-02 23:52:00
5:52 PM,107.1,51.1,16,29.70,10.0,WSW,13.8,17.3,N/A,,Partly Cloudy,240,2012-09-03 00:52:00
6:52 PM,104.0,48.9,16,29.70,10.0,SW,9.2,-,N/A,,Clear,230,2012-09-03 01:52:00
7:52 PM,100.9,48.0,17,29.71,10.0,SW,5.8,-,N/A,,Clear,230,2012-09-03 02:52:00
8:52 PM,98.1,48.0,18,29.74,10.0,WSW,4.6,-,N/A,,Clear,240,2012-09-03 03:52:00
9:52 PM,97.0,41.0,14,29.75,10.0,WSW,5.8,-,N/A,,Clear,240,2012-09-03 04:52:00
10:52 PM,97.0,42.1,15,29.77,10.0,SW,5.8,-,N/A,,Clear,230,2012-09-03 05:52:00
11:52 PM,93.0,45.0,19,29.78,10.0,SSW,6.9,-,N/A,,Clear,210,2012-09-03 06:52:00